createdAt,value
2018-09-11T00:01:01.467Z,102168.63
2018-09-11T00:03:30.062Z,102163.68
2018-09-11T00:05:59.328Z,102163.34
2018-09-11T00:08:28.345Z,102161.88
2018-09-11T00:10:56.686Z,102160.72
2018-09-11T00:13:25.129Z,102167.12
2018-09-11T00:15:53.985Z,102162.77
2018-09-11T00:18:22.496Z,102155.77
2018-09-11T00:20:50.914Z,102158.95
2018-09-11T00:23:19.398Z,102153.77
2018-09-11T00:25:47.842Z,102152.63
2018-09-11T00:28:16.164Z,102147.77
2018-09-11T00:30:44.595Z,102144.80
2018-09-11T00:33:13.077Z,102143.83
2018-09-11T00:35:41.530Z,102145.67
2018-09-11T00:38:09.986Z,102147.84
2018-09-11T00:40:38.510Z,102152.88
2018-09-11T00:43:07.414Z,102150.20
2018-09-11T00:45:36.014Z,102153.38
2018-09-11T00:48:04.613Z,102155.56
2018-09-11T00:50:33.485Z,102155.23
2018-09-11T00:53:01.800Z,102155.43
2018-09-11T00:55:30.797Z,102155.10
2018-09-11T00:57:59.509Z,102148.27
2018-09-11T01:00:27.827Z,102143.45
2018-09-11T01:02:56.218Z,102149.61
2018-09-11T01:05:24.626Z,102144.96
2018-09-11T01:07:53.007Z,102132.40
2018-09-11T01:10:21.856Z,102137.12
2018-09-11T01:12:50.497Z,102135.58
2018-09-11T01:15:19.547Z,102147.47
2018-09-11T01:17:47.995Z,102143.75
2018-09-11T01:20:16.491Z,102137.89
2018-09-11T01:22:44.904Z,102136.55
2018-09-11T01:25:13.434Z,102146.76
2018-09-11T01:27:41.772Z,102140.06
2018-09-11T01:30:10.082Z,102149.95
2018-09-11T01:32:38.417Z,102146.76
2018-09-11T01:35:06.845Z,102139.86
2018-09-11T01:37:35.229Z,102136.88
2018-09-11T01:40:03.713Z,102135.83
2018-09-11T01:42:32.052Z,102138.52
2018-09-11T01:45:00.469Z,102137.51
2018-09-11T01:47:28.912Z,102136.80
2018-09-11T01:49:58.220Z,102139.60
2018-09-11T01:52:28.192Z,102147.27
2018-09-11T01:54:56.652Z,102144.38
2018-09-11T01:57:25.047Z,102149.87
2018-09-11T01:59:53.497Z,102138.64
2018-09-11T02:02:22.358Z,102151.03
2018-09-11T02:04:51.237Z,102147.14
2018-09-11T02:07:20.949Z,102146.09
2018-09-11T02:12:16.412Z,102145.47
2018-09-11T02:14:44.932Z,102141.95
2018-09-11T02:17:13.329Z,102146.30
2018-09-11T02:19:41.749Z,102155.30
2018-09-11T02:22:10.233Z,102152.42
2018-09-11T02:24:38.565Z,102148.52
2018-09-11T02:27:07.887Z,102148.14
2018-09-11T02:29:36.264Z,102149.31
2018-09-11T02:32:04.822Z,102154.34
2018-09-11T02:34:33.327Z,102144.88
2018-09-11T02:37:01.614Z,102147.89
2018-09-11T02:39:30.012Z,102147.71
2018-09-11T02:41:58.372Z,102154.26
2018-09-11T02:44:26.777Z,102156.44
2018-09-11T02:46:55.215Z,102151.08
2018-09-11T02:49:23.629Z,102150.77
2018-09-11T02:51:52.023Z,102145.29
2018-09-11T02:54:20.335Z,102141.44
2018-09-11T02:56:49.347Z,102143.62
2018-09-11T02:59:17.739Z,102140.61
2018-09-11T03:01:46.178Z,102141.14
2018-09-11T03:04:14.551Z,102133.98
2018-09-11T03:06:43.035Z,102138.39
2018-09-11T03:09:11.471Z,102135.70
2018-09-11T03:11:39.803Z,102137.88
2018-09-11T03:14:08.220Z,102131.18
2018-09-11T03:16:36.561Z,102134.57
2018-09-11T03:19:05.154Z,102138.05
2018-09-11T03:21:33.493Z,102132.56
2018-09-11T03:24:01.884Z,102133.91
2018-09-11T03:26:30.253Z,102137.93
2018-09-11T03:28:58.632Z,102136.72
2018-09-11T03:31:27.126Z,102137.38
2018-09-11T03:33:55.496Z,102128.83
2018-09-11T03:36:24.103Z,102134.19
2018-09-11T03:38:52.477Z,102127.78
2018-09-11T03:41:20.849Z,102129.76
2018-09-11T03:43:49.928Z,102127.41
2018-09-11T03:46:18.807Z,102125.56
2018-09-11T03:48:47.468Z,102127.08
2018-09-11T03:51:17.820Z,102125.31
2018-09-11T03:53:46.278Z,102124.86
2018-09-11T03:56:14.622Z,102132.06
2018-09-11T03:58:43.014Z,102128.25
2018-09-11T04:01:11.595Z,102121.30
2018-09-11T04:03:40.053Z,102124.69
2018-09-11T04:06:08.497Z,102122.19
2018-09-11T04:08:36.980Z,102130.42
2018-09-11T04:11:05.354Z,102128.63
2018-09-11T04:13:33.807Z,102124.81
2018-09-11T04:16:02.238Z,102122.31
2018-09-11T04:18:31.125Z,102119.20
2018-09-11T04:20:59.496Z,102112.88
2018-09-11T04:23:28.588Z,102115.44
2018-09-11T04:25:57.055Z,102119.33
2018-09-11T04:28:25.471Z,102119.33
2018-09-11T04:30:53.952Z,102119.70
2018-09-11T04:33:22.330Z,102125.06
2018-09-11T04:35:50.704Z,102121.75
2018-09-11T04:38:19.013Z,102117.91
2018-09-11T04:40:47.348Z,102107.39
2018-09-11T04:43:15.731Z,102111.58
2018-09-11T04:45:44.118Z,102112.63
2018-09-11T04:48:12.844Z,102115.47
2018-09-11T04:50:41.162Z,102122.38
2018-09-11T04:53:10.110Z,102119.06
2018-09-11T04:55:39.549Z,102114.38
2018-09-11T04:58:08.545Z,102120.95
2018-09-11T05:00:36.978Z,102122.69
2018-09-11T05:03:06.353Z,102123.36
2018-09-11T05:05:34.757Z,102123.06
2018-09-11T05:08:03.725Z,102111.02
2018-09-11T05:10:32.214Z,102116.38
2018-09-11T05:13:01.635Z,102115.20
2018-09-11T05:15:30.008Z,102121.90
2018-09-11T05:17:59.126Z,102124.70
2018-09-11T05:20:27.501Z,102127.72
2018-09-11T05:22:55.895Z,102128.05
2018-09-11T05:25:24.431Z,102113.75
2018-09-11T05:27:52.923Z,102123.58
2018-09-11T05:30:21.263Z,102121.87
2018-09-11T05:32:49.776Z,102123.84
2018-09-11T05:35:18.350Z,102127.78
2018-09-11T05:37:46.708Z,102122.89
2018-09-11T05:40:15.891Z,102124.86
2018-09-11T05:42:44.264Z,102129.00
2018-09-11T05:45:12.708Z,102132.98
2018-09-11T05:47:41.137Z,102138.27
2018-09-11T05:50:10.907Z,102129.34
2018-09-11T05:52:40.071Z,102128.63
2018-09-11T05:55:09.149Z,102136.62
2018-09-11T05:57:37.570Z,102144.92
2018-09-11T06:00:06.916Z,102138.84
2018-09-11T06:02:36.453Z,102135.25
2018-09-11T06:05:05.397Z,102128.83
2018-09-11T06:07:34.260Z,102137.50
2018-09-11T06:10:02.850Z,102133.40
2018-09-11T06:12:31.347Z,102133.85
2018-09-11T06:14:59.823Z,102141.52
2018-09-11T06:17:28.446Z,102138.13
2018-09-11T06:19:57.444Z,102140.21
2018-09-11T06:22:25.828Z,102140.45
2018-09-11T06:24:54.210Z,102148.33
2018-09-11T06:27:22.938Z,102143.71
2018-09-11T06:29:51.229Z,102140.94
2018-09-11T06:32:20.103Z,102138.23
2018-09-11T06:34:48.884Z,102142.37
2018-09-11T06:37:17.236Z,102139.73
2018-09-11T06:39:45.896Z,102152.70
2018-09-11T06:42:14.328Z,102147.24
2018-09-11T06:44:42.751Z,102153.06
2018-09-11T06:47:11.958Z,102151.23
2018-09-11T06:49:40.359Z,102144.97
2018-09-11T06:52:08.742Z,102144.58
2018-09-11T06:54:37.242Z,102135.42
2018-09-11T06:57:06.107Z,102137.11
2018-09-11T06:59:35.036Z,102133.42
2018-09-11T07:02:07.699Z,102136.80
2018-09-11T07:04:36.198Z,102129.92
2018-09-11T07:07:05.024Z,102128.65
2018-09-11T07:09:34.014Z,102130.54
2018-09-11T07:12:03.725Z,102129.34
2018-09-11T07:14:32.115Z,102123.85
2018-09-11T07:17:00.496Z,102130.25
2018-09-11T07:19:29.528Z,102142.16
2018-09-11T07:21:58.027Z,102141.65
2018-09-11T07:24:26.725Z,102144.73
2018-09-11T07:26:55.405Z,102145.17
2018-09-11T07:29:24.319Z,102154.80
2018-09-11T07:31:52.710Z,102152.64
2018-09-11T07:34:21.068Z,102162.67
2018-09-11T07:36:49.698Z,102168.77
2018-09-11T07:39:18.119Z,102166.30
2018-09-11T07:41:46.612Z,102165.67
2018-09-11T07:44:15.065Z,102159.38
2018-09-11T07:46:43.418Z,102161.26
2018-09-11T07:49:11.837Z,102162.59
2018-09-11T07:51:40.253Z,102169.75
2018-09-11T07:54:09.404Z,102162.95
2018-09-11T07:59:09.605Z,102168.10
2018-09-11T08:01:38.096Z,102179.59
2018-09-11T08:04:06.798Z,102177.39
2018-09-11T08:06:35.296Z,102181.63
2018-09-11T08:09:04.864Z,102181.50
2018-09-11T08:11:33.847Z,102175.56
2018-09-11T08:14:03.197Z,102181.39
2018-09-11T08:16:32.314Z,102175.87
2018-09-11T08:19:00.625Z,102182.89
2018-09-11T08:21:29.070Z,102179.95
2018-09-11T08:23:57.782Z,102193.37
2018-09-11T08:26:26.284Z,102189.59
2018-09-11T08:28:55.119Z,102188.47
2018-09-11T08:31:23.544Z,102183.67
2018-09-11T08:33:52.963Z,102180.55
2018-09-11T08:36:21.453Z,102183.97
2018-09-11T08:38:49.893Z,102193.44
2018-09-11T08:41:18.481Z,102190.69
2018-09-11T08:43:46.873Z,102188.92
2018-09-11T08:46:15.257Z,102178.38
2018-09-11T08:48:43.725Z,102176.91
2018-09-11T08:51:12.343Z,102179.27
2018-09-11T08:53:42.044Z,102179.38
2018-09-11T08:56:10.754Z,102182.91
2018-09-11T08:58:39.216Z,102189.15
2018-09-11T09:01:08.206Z,102191.67
2018-09-11T09:03:36.645Z,102192.74
2018-09-11T09:06:05.522Z,102205.73
2018-09-11T09:08:33.872Z,102218.19
2018-09-11T09:11:02.483Z,102208.31
2018-09-11T09:13:30.848Z,102207.85
2018-09-11T09:15:59.188Z,102220.16
2018-09-11T09:18:28.555Z,102216.98
2018-09-11T09:20:57.037Z,102226.94
2018-09-11T09:23:25.586Z,102219.94
2018-09-11T09:25:53.996Z,102218.40
2018-09-11T09:28:22.633Z,102213.97
2018-09-11T09:30:51.073Z,102215.84
2018-09-11T09:33:19.534Z,102212.38
2018-09-11T09:35:48.650Z,102206.55
2018-09-11T09:38:19.110Z,102200.02
2018-09-11T09:40:48.476Z,102207.38
2018-09-11T09:43:16.901Z,102210.17
2018-09-11T09:45:45.239Z,102198.79
2018-09-11T09:48:13.659Z,102210.27
2018-09-11T09:50:42.559Z,102205.98
2018-09-11T09:53:10.949Z,102210.74
2018-09-11T09:55:39.244Z,102215.70
2018-09-11T09:58:08.058Z,102221.59
2018-09-11T10:00:41.596Z,102209.11
2018-09-11T10:03:10.029Z,102215.63
2018-09-11T10:05:38.762Z,102220.59
2018-09-11T10:08:07.748Z,102219.61
2018-09-11T10:10:36.299Z,102221.31
2018-09-11T10:13:05.773Z,102225.73
2018-09-11T10:15:34.257Z,102231.19
2018-09-11T10:18:04.381Z,102232.40
2018-09-11T10:20:32.912Z,102228.75
2018-09-11T10:23:01.349Z,102226.39
2018-09-11T10:25:30.700Z,102221.03
2018-09-11T10:27:59.738Z,102219.64
2018-09-11T10:30:28.164Z,102224.70
2018-09-11T10:32:56.594Z,102221.45
2018-09-11T10:35:25.945Z,102214.21
2018-09-11T10:37:54.417Z,102217.61
2018-09-11T10:40:22.876Z,102226.03
2018-09-11T10:42:51.528Z,102223.95
2018-09-11T10:45:19.880Z,102216.86
2018-09-11T10:47:48.283Z,102219.87
2018-09-11T10:50:17.072Z,102207.52
2018-09-11T10:52:45.560Z,102208.20
2018-09-11T10:55:14.606Z,102203.69
2018-09-11T10:57:43.232Z,102194.64
2018-09-11T11:00:11.673Z,102196.19
2018-09-11T11:02:40.139Z,102189.06
2018-09-11T11:05:08.641Z,102186.20
2018-09-11T11:07:37.196Z,102173.30
2018-09-11T11:10:09.067Z,102188.56
2018-09-11T11:12:37.405Z,102189.20
2018-09-11T11:17:35.128Z,102180.40
2018-09-11T11:20:03.612Z,102168.79
2018-09-11T11:22:32.163Z,102172.58
2018-09-11T11:25:00.711Z,102169.14
2018-09-11T11:27:29.101Z,102166.81
2018-09-11T11:32:24.909Z,102174.28
2018-09-11T11:34:53.262Z,102175.65
2018-09-11T11:37:21.762Z,102176.74
2018-09-11T11:39:50.650Z,102172.91
2018-09-11T11:42:19.010Z,102168.79
2018-09-11T11:44:47.342Z,102183.50
2018-09-11T11:47:16.743Z,102181.14
2018-09-11T11:49:45.108Z,102184.84
2018-09-11T11:52:13.556Z,102180.77
2018-09-11T11:54:42.115Z,102176.13
2018-09-11T11:57:10.403Z,102184.25
2018-09-11T11:59:38.798Z,102173.06
2018-09-11T12:02:08.382Z,102177.22
2018-09-11T12:04:36.786Z,102184.52
2018-09-11T12:07:07.327Z,102192.76
2018-09-11T12:09:35.694Z,102191.95
2018-09-11T12:12:04.569Z,102188.60
2018-09-11T12:14:33.029Z,102187.31
2018-09-11T12:17:01.448Z,102180.80
2018-09-11T12:19:29.952Z,102178.11
2018-09-11T12:21:58.377Z,102183.49
2018-09-11T12:24:26.723Z,102164.51
2018-09-11T12:26:55.060Z,102172.48
2018-09-11T12:29:23.374Z,102173.53
2018-09-11T12:31:51.737Z,102162.56
2018-09-11T12:34:20.131Z,102164.46
2018-09-11T12:36:50.497Z,102161.77
2018-09-11T12:39:18.937Z,102168.98
2018-09-11T12:41:48.636Z,102163.13
2018-09-11T12:44:16.989Z,102170.25
2018-09-11T12:46:46.155Z,102168.89
2018-09-11T12:49:14.459Z,102165.06
2018-09-11T12:51:43.668Z,102164.17
2018-09-11T12:54:12.034Z,102169.72
2018-09-11T12:56:40.793Z,102168.84
2018-09-11T12:59:09.283Z,102141.31
2018-09-11T13:01:37.984Z,102149.55
2018-09-11T13:04:08.387Z,102153.40
2018-09-11T13:06:36.804Z,102154.12
2018-09-11T13:09:07.559Z,102150.04
2018-09-11T13:11:36.001Z,102144.91
2018-09-11T13:14:05.217Z,102141.67
2018-09-11T13:19:04.447Z,102133.12
2018-09-11T13:21:32.926Z,102120.84
2018-09-11T13:24:01.830Z,102124.44
2018-09-11T13:26:30.235Z,102129.02
2018-09-11T13:28:58.642Z,102130.95
2018-09-11T13:31:27.125Z,102128.50
2018-09-11T13:33:55.759Z,102129.80
2018-09-11T13:36:24.214Z,102119.05
2018-09-11T13:38:52.750Z,102117.97
2018-09-11T13:41:21.159Z,102116.61
2018-09-11T13:43:49.914Z,102114.95
2018-09-11T13:46:18.595Z,102109.47
2018-09-11T13:48:47.201Z,102107.17
2018-09-11T13:51:15.635Z,102115.71
2018-09-11T13:53:44.025Z,102104.98
2018-09-11T13:56:12.421Z,102113.72
2018-09-11T13:58:41.039Z,102100.11
2018-09-11T14:01:09.561Z,102098.48
2018-09-11T14:03:38.695Z,102099.67
2018-09-11T14:06:07.586Z,102098.48
2018-09-11T14:08:35.961Z,102093.70
2018-09-11T14:11:04.632Z,102092.34
2018-09-11T14:13:34.071Z,102096.67
2018-09-11T14:16:02.405Z,102101.81
2018-09-11T14:18:30.860Z,102098.75
2018-09-11T14:20:59.821Z,102094.30
2018-09-11T14:23:28.604Z,102081.16
2018-09-11T14:25:56.917Z,102097.27
2018-09-11T14:28:26.084Z,102088.44
2018-09-11T14:30:54.538Z,102094.80
2018-09-11T14:33:22.915Z,102091.39
2018-09-11T14:35:52.105Z,102091.46
2018-09-11T14:38:20.484Z,102093.36
2018-09-11T14:40:49.132Z,102093.16
2018-09-11T14:43:17.656Z,102077.34
2018-09-11T14:45:46.180Z,102085.58
2018-09-11T14:48:14.789Z,102083.20
2018-09-11T14:50:43.281Z,102088.69
2018-09-11T14:53:11.683Z,102080.97
2018-09-11T14:55:40.205Z,102084.03
2018-09-11T14:58:08.733Z,102084.75
2018-09-11T15:00:38.118Z,102080.06
2018-09-11T15:03:07.013Z,102079.20
2018-09-11T15:05:35.617Z,102077.67
2018-09-11T15:08:04.381Z,102075.92
2018-09-11T15:10:32.996Z,102077.80
2018-09-11T15:13:01.600Z,102077.75
2018-09-11T15:15:30.093Z,102081.63
2018-09-11T15:17:59.437Z,102081.42
2018-09-11T15:20:27.841Z,102080.29
2018-09-11T15:22:56.283Z,102081.32
2018-09-11T15:25:25.800Z,102089.63
2018-09-11T15:27:54.414Z,102085.23
2018-09-11T15:30:22.840Z,102084.15
2018-09-11T15:32:51.237Z,102084.91
2018-09-11T15:35:19.721Z,102090.28
2018-09-11T15:37:48.873Z,102082.56
2018-09-11T15:40:17.840Z,102077.98
2018-09-11T15:42:46.436Z,102085.28
2018-09-11T15:45:14.825Z,102078.05
2018-09-11T15:47:43.406Z,102083.75
2018-09-11T15:50:11.830Z,102078.29
2018-09-11T15:52:40.372Z,102084.75
2018-09-11T15:55:08.785Z,102076.03
2018-09-11T15:57:37.268Z,102066.20
2018-09-11T16:00:06.319Z,102058.55
2018-09-11T16:02:34.748Z,102053.91
2018-09-11T16:05:03.349Z,102061.48
2018-09-11T16:07:31.831Z,102052.45
2018-09-11T16:10:00.361Z,102045.52
2018-09-11T16:12:28.853Z,102056.71
2018-09-11T16:14:57.317Z,102050.66
2018-09-11T16:17:26.910Z,102051.16
2018-09-11T16:19:55.439Z,102046.81
2018-09-11T16:22:23.895Z,102052.23
2018-09-11T16:24:52.261Z,102043.72
2018-09-11T16:27:21.575Z,102043.60
2018-09-11T16:29:50.133Z,102047.59
2018-09-11T16:32:19.258Z,102046.20
2018-09-11T16:34:47.653Z,102046.93
2018-09-11T16:37:16.108Z,102042.80
2018-09-11T16:39:44.557Z,102046.27
2018-09-11T16:42:12.987Z,102051.97
2018-09-11T16:44:41.415Z,102052.74
2018-09-11T16:47:09.889Z,102052.51
2018-09-11T16:49:38.390Z,102048.66
2018-09-11T16:52:06.815Z,102051.38
2018-09-11T16:54:35.226Z,102054.06
2018-09-11T16:57:04.612Z,102044.78
2018-09-11T16:59:32.911Z,102056.28
2018-09-11T17:02:01.835Z,102051.01
2018-09-11T17:04:30.280Z,102055.80
2018-09-11T17:06:58.656Z,102055.39
2018-09-11T17:09:27.118Z,102057.20
2018-09-11T17:11:57.330Z,102058.45
2018-09-11T17:14:25.908Z,102058.07
2018-09-11T17:16:54.351Z,102063.11
2018-09-11T17:19:23.564Z,102069.52
2018-09-11T17:21:51.971Z,102068.48
2018-09-11T17:24:20.443Z,102072.47
2018-09-11T17:26:48.811Z,102070.50
2018-09-11T17:29:17.161Z,102077.20
2018-09-11T17:31:45.679Z,102077.33
2018-09-11T17:34:14.078Z,102079.91
2018-09-11T17:36:42.478Z,102093.33
2018-09-11T17:39:12.114Z,102092.61
2018-09-11T17:41:41.274Z,102102.23
2018-09-11T17:46:37.132Z,102101.70
2018-09-11T17:49:05.823Z,102102.51
2018-09-11T17:51:34.247Z,102098.44
2018-09-11T17:54:03.465Z,102102.28
2018-09-11T17:56:32.004Z,102091.74
2018-09-11T17:59:03.435Z,102092.64
2018-09-11T18:01:32.566Z,102092.46
2018-09-11T18:04:01.965Z,102093.17
2018-09-11T18:06:30.452Z,102099.58
2018-09-11T18:08:59.080Z,102098.93
2018-09-11T18:11:27.620Z,102101.45
2018-09-11T18:13:56.009Z,102097.98
2018-09-11T18:16:24.361Z,102102.70
2018-09-11T18:18:53.305Z,102108.76
2018-09-11T18:21:21.747Z,102111.58
2018-09-11T18:23:50.250Z,102107.02
2018-09-11T18:26:18.737Z,102101.69
2018-09-11T18:28:47.113Z,102107.17
2018-09-11T18:31:15.580Z,102112.66
2018-09-11T18:33:44.086Z,102104.72
2018-09-11T18:36:12.659Z,102099.17
2018-09-11T18:38:41.006Z,102104.45
2018-09-11T18:41:09.351Z,102102.95
2018-09-11T18:43:37.680Z,102104.23
2018-09-11T18:46:06.180Z,102102.81
2018-09-11T18:48:35.110Z,102108.36
2018-09-11T18:51:03.662Z,102107.45
2018-09-11T18:53:32.103Z,102113.86
2018-09-11T18:56:00.687Z,102111.74
2018-09-11T18:58:30.469Z,102114.30
2018-09-11T19:00:59.045Z,102114.54
2018-09-11T19:03:27.394Z,102124.00
2018-09-11T19:05:55.846Z,102119.87
2018-09-11T19:08:24.840Z,102123.33
2018-09-11T19:10:53.762Z,102122.78
2018-09-11T19:13:22.070Z,102118.72
2018-09-11T19:18:17.782Z,102127.16
2018-09-11T19:20:46.423Z,102114.09
2018-09-11T19:23:14.852Z,102112.33
2018-09-11T19:25:43.328Z,102118.17
2018-09-11T19:28:11.718Z,102117.50
2018-09-11T19:33:07.370Z,102116.36
2018-09-11T19:35:36.797Z,102116.28
2018-09-11T19:38:07.310Z,102117.04
2018-09-11T19:40:35.901Z,102120.34
2018-09-11T19:43:04.311Z,102115.45
2018-09-11T19:45:33.937Z,102117.11
2018-09-11T19:48:02.422Z,102116.80
2018-09-11T19:50:32.143Z,102117.87
2018-09-11T19:53:00.679Z,102117.24
2018-09-11T19:55:29.188Z,102120.70
2018-09-11T19:58:02.213Z,102120.41
2018-09-11T20:00:32.602Z,102121.97
2018-09-11T20:03:01.213Z,102118.16
2018-09-11T20:05:29.569Z,102119.42
2018-09-11T20:07:58.122Z,102119.03
2018-09-11T20:10:26.557Z,102113.31
2018-09-11T20:12:55.278Z,102115.73
2018-09-11T20:15:26.905Z,102110.70
2018-09-11T20:17:55.518Z,102108.20
2018-09-11T20:20:23.924Z,102110.81
2018-09-11T20:22:52.520Z,102113.67
2018-09-11T20:25:21.247Z,102114.94
2018-09-11T20:27:50.253Z,102111.33
2018-09-11T20:30:19.590Z,102110.41
2018-09-11T20:32:48.026Z,102118.95
2018-09-11T20:35:16.494Z,102111.83
2018-09-11T20:37:45.406Z,102107.19
2018-09-11T20:40:13.845Z,102107.54
2018-09-11T20:42:42.399Z,102114.61
2018-09-11T20:45:10.851Z,102118.56
2018-09-11T20:47:39.219Z,102121.78
2018-09-11T20:50:08.170Z,102122.21
2018-09-11T20:52:36.685Z,102120.46
2018-09-11T20:55:05.464Z,102117.08
2018-09-11T20:57:34.064Z,102112.95
2018-09-11T21:00:02.467Z,102116.91
2018-09-11T21:02:30.957Z,102121.19
2018-09-11T21:04:59.338Z,102128.67
2018-09-11T21:07:27.920Z,102126.61
2018-09-11T21:09:56.321Z,102126.52
2018-09-11T21:12:25.303Z,102133.17
2018-09-11T21:14:54.512Z,102128.84
2018-09-11T21:17:23.005Z,102123.88
2018-09-11T21:19:51.393Z,102128.34
2018-09-11T21:22:19.811Z,102124.96
2018-09-11T21:24:48.240Z,102129.20
2018-09-11T21:27:16.616Z,102125.58
2018-09-11T21:29:44.972Z,102124.69
2018-09-11T21:32:14.340Z,102131.31
2018-09-11T21:34:42.877Z,102133.91
2018-09-11T21:37:12.289Z,102131.22
2018-09-11T21:39:40.655Z,102131.53
2018-09-11T21:42:09.231Z,102126.89
2018-09-11T21:44:39.313Z,102120.44
2018-09-11T21:47:07.749Z,102124.28
2018-09-11T21:49:36.298Z,102125.12
2018-09-11T21:52:04.746Z,102132.66
2018-09-11T21:54:33.417Z,102134.84
2018-09-11T21:57:01.818Z,102136.19
2018-09-11T21:59:30.286Z,102134.64
2018-09-11T22:02:02.496Z,102142.21
2018-09-11T22:04:31.269Z,102144.59
2018-09-11T22:06:59.752Z,102146.97
2018-09-11T22:09:28.197Z,102139.94
2018-09-11T22:11:56.788Z,102135.06
2018-09-11T22:14:25.059Z,102138.79
2018-09-11T22:16:53.651Z,102133.11
2018-09-11T22:19:22.234Z,102135.81
2018-09-11T22:21:52.144Z,102130.93
2018-09-11T22:24:20.766Z,102132.80
2018-09-11T22:26:49.143Z,102137.35
2018-09-11T22:29:17.553Z,102136.84
2018-09-11T22:31:46.483Z,102130.61
2018-09-11T22:34:14.824Z,102133.62
2018-09-11T22:36:43.354Z,102135.81
2018-09-11T22:39:12.145Z,102139.30
2018-09-11T22:41:40.590Z,102130.19
2018-09-11T22:44:09.991Z,102120.67
2018-09-11T22:46:38.619Z,102121.50
2018-09-11T22:49:07.095Z,102122.33
2018-09-11T22:51:35.505Z,102113.41
2018-09-11T22:54:04.800Z,102111.23
2018-09-11T22:56:33.187Z,102109.56
2018-09-11T22:59:02.054Z,102103.89
2018-09-11T23:01:30.504Z,102102.55
2018-09-11T23:03:59.067Z,102101.48
2018-09-11T23:06:27.402Z,102098.50
2018-09-11T23:08:56.381Z,102094.45
2018-09-11T23:11:25.830Z,102091.25
2018-09-11T23:13:54.249Z,102089.91
2018-09-11T23:16:23.245Z,102094.14
2018-09-11T23:18:51.828Z,102091.45
2018-09-11T23:21:20.615Z,102085.45
2018-09-11T23:23:49.006Z,102083.19
2018-09-11T23:26:18.194Z,102077.70
2018-09-11T23:28:47.250Z,102077.53
2018-09-11T23:31:15.665Z,102077.66
2018-09-11T23:33:44.077Z,102071.23
2018-09-11T23:36:12.507Z,102067.39
2018-09-11T23:38:40.813Z,102069.80
2018-09-11T23:41:09.371Z,102076.20
2018-09-11T23:43:37.874Z,102062.13
2018-09-11T23:46:06.378Z,102060.27
2018-09-11T23:48:34.741Z,102059.53
2018-09-11T23:51:03.201Z,102064.09
2018-09-11T23:53:31.503Z,102062.23
2018-09-11T23:56:00.049Z,102060.79
2018-09-11T23:58:29.348Z,102057.48
